aviador You're here:

EHGR Decoded Metar

GILZE-RIJEN in NETHERLANDS
Report Time2018-05-20 22:55:00
UTC Time2018-05-20 23:20:57
Flight Rules vfr VFR
WindVRB at 02 kt
Visibility9999 m
Phenomena:N/A
Clouds:N/A
Expected CloudBase > 1,200 ft AGL from Temp-Dew spread
CeilingNone
Temp13°C (ISA -2)
Dew Point10°C (82% RH)
AAT12.3°C
QNH1019 hPa
Density Alt-223 ft
Elevation43 ft
Report Wrong Elevation
Raw Report
METAR EHGR 202255Z AUTO VRB02KT 9999 NCD 13/10 Q1019 BLACKBLU=

Extra information for EHGR:More info

Metar Taf Metar & Taf Last 4 Metars F.Rules Stats Wind Profile Meteogram Temp Stats Airport Information Weather charts Add Link Nearby VenuesMetar ALERT Operation Metar Decoded Social comments